createdAt,value
2018-06-04T00:00:20.272Z,0
2018-06-04T00:01:30.232Z,0
2018-06-04T00:02:40.234Z,0
2018-06-04T00:03:50.204Z,0
2018-06-04T00:04:59.917Z,0
2018-06-04T00:06:09.888Z,0
2018-06-04T00:07:19.870Z,0
2018-06-04T00:08:29.581Z,0
2018-06-04T00:09:39.294Z,0
2018-06-04T00:10:48.743Z,0
2018-06-04T00:11:58.474Z,0
2018-06-04T00:13:08.442Z,0
2018-06-04T00:14:18.417Z,0
2018-06-04T00:15:28.151Z,0
2018-06-04T00:16:38.122Z,0
2018-06-04T00:17:47.842Z,0
2018-06-04T00:18:57.830Z,0
2018-06-04T00:20:07.805Z,0
2018-06-04T00:21:17.773Z,0
2018-06-04T00:22:27.516Z,0
2018-06-04T00:23:37.503Z,0
2018-06-04T00:24:47.488Z,0
2018-06-04T00:25:57.502Z,0
2018-06-04T00:27:07.486Z,0
2018-06-04T00:28:17.467Z,0
2018-06-04T00:29:27.453Z,0
2018-06-04T00:30:37.173Z,0
2018-06-04T00:31:47.149Z,0
2018-06-04T00:32:56.879Z,0
2018-06-04T00:34:06.895Z,0
2018-06-04T00:35:16.862Z,0
2018-06-04T00:36:26.567Z,0
2018-06-04T00:37:36.516Z,0
2018-06-04T00:38:46.484Z,0
2018-06-04T00:39:56.463Z,0
2018-06-04T00:41:06.177Z,0
2018-06-04T00:42:15.893Z,0
2018-06-04T00:43:25.871Z,0
2018-06-04T00:44:35.841Z,0
2018-06-04T00:45:45.809Z,0
2018-06-04T00:46:55.780Z,0
2018-06-04T00:48:05.747Z,0
2018-06-04T00:49:15.461Z,0
2018-06-04T00:50:25.439Z,0
2018-06-04T00:51:35.422Z,0
2018-06-04T00:52:45.392Z,0
2018-06-04T00:53:55.366Z,0
2018-06-04T00:55:05.092Z,0
2018-06-04T00:56:15.071Z,0
2018-06-04T00:57:25.033Z,0
2018-06-04T00:58:34.997Z,0
2018-06-04T00:59:44.980Z,0
2018-06-04T01:00:54.950Z,0
2018-06-04T01:02:04.936Z,0
2018-06-04T01:03:14.662Z,0
2018-06-04T01:04:24.381Z,0
2018-06-04T01:05:34.094Z,0
2018-06-04T01:06:43.815Z,0
2018-06-04T01:07:53.530Z,0
2018-06-04T01:09:03.501Z,0
2018-06-04T01:10:13.230Z,0
2018-06-04T01:11:23.204Z,0
2018-06-04T01:12:33.185Z,0
2018-06-04T01:13:43.161Z,0
2018-06-04T01:14:53.128Z,0
2018-06-04T01:16:02.840Z,0
2018-06-04T01:17:12.813Z,0
2018-06-04T01:18:22.269Z,0
2018-06-04T01:19:32.262Z,0
2018-06-04T01:20:42.224Z,0
2018-06-04T01:21:51.929Z,0
2018-06-04T01:23:01.908Z,0
2018-06-04T01:24:11.887Z,0
2018-06-04T01:25:21.861Z,0
2018-06-04T01:26:31.827Z,0
2018-06-04T01:27:41.270Z,0
2018-06-04T01:28:50.728Z,0
2018-06-04T01:30:00.447Z,0
2018-06-04T01:31:10.164Z,0
2018-06-04T01:32:20.139Z,0
2018-06-04T01:33:30.108Z,0
2018-06-04T01:34:40.087Z,0
2018-06-04T01:35:50.062Z,0
2018-06-04T01:37:00.034Z,0
2018-06-04T01:38:09.744Z,0
2018-06-04T01:39:19.722Z,0
2018-06-04T01:40:29.432Z,0
2018-06-04T01:41:39.402Z,0
2018-06-04T01:42:49.104Z,0
2018-06-04T01:43:59.077Z,0
2018-06-04T01:45:09.049Z,0
2018-06-04T01:46:19.027Z,0
2018-06-04T01:47:28.754Z,0
2018-06-04T01:48:38.475Z,0
2018-06-04T01:49:48.198Z,0
2018-06-04T01:50:58.176Z,0
2018-06-04T01:52:07.890Z,0
2018-06-04T01:53:17.594Z,0
2018-06-04T01:54:27.581Z,0
2018-06-04T01:55:37.561Z,0
2018-06-04T01:56:47.332Z,0
2018-06-04T01:57:57.312Z,0
2018-06-04T01:59:07.279Z,0
2018-06-04T02:00:17.261Z,0
2018-06-04T02:01:27.229Z,0
2018-06-04T02:02:37.201Z,0
2018-06-04T02:03:47.176Z,0
2018-06-04T02:04:56.890Z,0
2018-06-04T02:06:06.863Z,0
2018-06-04T02:07:16.827Z,0
2018-06-04T02:08:26.535Z,0
2018-06-04T02:09:36.503Z,0
2018-06-04T02:10:45.956Z,0
2018-06-04T02:11:55.924Z,0
2018-06-04T02:13:05.903Z,0
2018-06-04T02:14:15.616Z,0
2018-06-04T02:15:25.320Z,0
2018-06-04T02:16:35.283Z,0
2018-06-04T02:17:44.995Z,0
2018-06-04T02:18:54.971Z,0
2018-06-04T02:20:04.947Z,0
2018-06-04T02:21:14.665Z,0
2018-06-04T02:22:24.379Z,0
2018-06-04T02:23:34.343Z,0
2018-06-04T02:24:44.315Z,0
2018-06-04T02:25:54.274Z,0
2018-06-04T02:27:04.252Z,0
2018-06-04T02:28:14.222Z,0
2018-06-04T02:29:24.198Z,0
2018-06-04T02:30:34.165Z,0
2018-06-04T02:31:44.142Z,0
2018-06-04T02:32:54.109Z,0
2018-06-04T02:34:04.099Z,0
2018-06-04T02:35:14.106Z,0
2018-06-04T02:36:23.838Z,5
2018-06-04T02:37:33.816Z,5
2018-06-04T02:38:43.530Z,5
2018-06-04T02:39:53.508Z,5
2018-06-04T02:41:03.489Z,5
2018-06-04T02:42:13.468Z,5
2018-06-04T02:43:23.183Z,5
2018-06-04T02:44:32.962Z,10
2018-06-04T02:45:42.954Z,10
2018-06-04T02:46:53.164Z,10
2018-06-04T02:48:03.153Z,10
2018-06-04T02:49:13.140Z,10
2018-06-04T02:50:23.005Z,15
2018-06-04T02:51:32.749Z,15
2018-06-04T02:52:42.725Z,15
2018-06-04T02:53:52.453Z,15
2018-06-04T02:55:02.427Z,20
2018-06-04T02:56:12.449Z,20
2018-06-04T02:57:22.179Z,20
2018-06-04T02:58:32.160Z,20
2018-06-04T02:59:42.204Z,25
2018-06-04T03:00:51.397Z,25
2018-06-04T03:02:00.861Z,25
2018-06-04T03:03:10.831Z,30
2018-06-04T03:04:20.907Z,30
2018-06-04T03:05:30.895Z,30
2018-06-04T03:06:40.884Z,35
2018-06-04T03:07:50.604Z,35
2018-06-04T03:09:00.581Z,35
2018-06-04T03:10:10.550Z,40
2018-06-04T03:11:20.269Z,40
2018-06-04T03:12:29.978Z,45
2018-06-04T03:13:39.700Z,45
2018-06-04T03:14:49.671Z,45
2018-06-04T03:15:59.655Z,50
2018-06-04T03:17:09.374Z,50
2018-06-04T03:18:19.341Z,55
2018-06-04T03:19:29.311Z,55
2018-06-04T03:20:39.273Z,55
2018-06-04T03:21:49.241Z,60
2018-06-04T03:22:59.219Z,60
2018-06-04T03:24:08.939Z,65
2018-06-04T03:25:18.658Z,65
2018-06-04T03:26:28.645Z,70
2018-06-04T03:27:38.612Z,70
2018-06-04T03:28:48.334Z,75
2018-06-04T03:29:58.317Z,75
2018-06-04T03:31:08.315Z,80
2018-06-04T03:32:18.024Z,80
2018-06-04T03:33:27.735Z,85
2018-06-04T03:34:37.726Z,85
2018-06-04T03:35:47.698Z,90
2018-06-04T03:36:57.410Z,90
2018-06-04T03:38:07.377Z,95
2018-06-04T03:39:17.361Z,95
2018-06-04T03:40:27.329Z,100
2018-06-04T03:41:37.044Z,100
2018-06-04T03:42:46.749Z,105
2018-06-04T03:43:56.721Z,105
2018-06-04T03:45:06.444Z,110
2018-06-04T03:46:16.411Z,110
2018-06-04T03:47:26.379Z,110
2018-06-04T03:48:35.833Z,115
2018-06-04T03:49:45.546Z,115
2018-06-04T03:50:55.250Z,120
2018-06-04T03:52:05.079Z,120
2018-06-04T03:53:14.801Z,125
2018-06-04T03:54:24.771Z,125
2018-06-04T03:55:34.753Z,130
2018-06-04T03:56:44.733Z,130
2018-06-04T03:57:54.705Z,135
2018-06-04T03:59:04.431Z,135
2018-06-04T04:00:13.926Z,135
2018-06-04T04:01:23.932Z,140
2018-06-04T04:02:33.906Z,140
2018-06-04T04:03:43.885Z,140
2018-06-04T04:04:53.867Z,145
2018-06-04T04:06:03.574Z,145
2018-06-04T04:07:13.293Z,150
2018-06-04T04:08:23.526Z,150
2018-06-04T04:09:32.966Z,150
2018-06-04T04:10:42.420Z,155
2018-06-04T04:11:52.130Z,155
2018-06-04T04:13:02.120Z,160
2018-06-04T04:14:11.842Z,160
2018-06-04T04:15:21.813Z,165
2018-06-04T04:16:31.785Z,165
2018-06-04T04:17:41.755Z,165
2018-06-04T04:18:51.735Z,170
2018-06-04T04:20:01.714Z,170
2018-06-04T04:21:11.714Z,175
2018-06-04T04:22:21.437Z,175
2018-06-04T04:23:31.144Z,180
2018-06-04T04:24:40.850Z,180
2018-06-04T04:25:50.916Z,180
2018-06-04T04:27:00.889Z,185
2018-06-04T04:28:10.718Z,185
2018-06-04T04:29:20.689Z,190
2018-06-04T04:30:30.141Z,190
2018-06-04T04:31:40.123Z,190
2018-06-04T04:32:50.090Z,195
2018-06-04T04:34:00.066Z,195
2018-06-04T04:35:09.776Z,200
2018-06-04T04:36:19.487Z,200
2018-06-04T04:37:29.456Z,205
2018-06-04T04:38:38.908Z,205
2018-06-04T04:39:48.881Z,210
2018-06-04T04:40:58.600Z,210
2018-06-04T04:42:08.321Z,210
2018-06-04T04:43:18.035Z,215
2018-06-04T04:44:28.031Z,215
2018-06-04T04:45:37.998Z,215
2018-06-04T04:46:48.260Z,220
2018-06-04T04:47:58.229Z,220
2018-06-04T04:49:07.946Z,225
2018-06-04T04:50:17.911Z,225
2018-06-04T04:51:27.629Z,225
2018-06-04T04:52:37.599Z,230
2018-06-04T04:53:47.577Z,225
2018-06-04T04:54:57.541Z,230
2018-06-04T04:56:07.531Z,235
2018-06-04T04:57:17.236Z,235
2018-06-04T04:58:26.943Z,240
2018-06-04T04:59:36.731Z,240
2018-06-04T05:00:46.738Z,245
2018-06-04T05:01:56.708Z,245
2018-06-04T05:03:06.711Z,245
2018-06-04T05:04:16.675Z,250
2018-06-04T05:05:26.398Z,250
2018-06-04T05:06:36.372Z,250
2018-06-04T05:07:46.082Z,255
2018-06-04T05:08:56.079Z,255
2018-06-04T05:10:06.060Z,255
2018-06-04T05:11:16.039Z,255
2018-06-04T05:12:25.763Z,260
2018-06-04T05:13:35.741Z,260
2018-06-04T05:14:45.451Z,260
2018-06-04T05:15:55.459Z,265
2018-06-04T05:17:05.192Z,265
2018-06-04T05:18:15.175Z,265
2018-06-04T05:19:25.154Z,270
2018-06-04T05:20:35.120Z,270
2018-06-04T05:21:44.846Z,270
2018-06-04T05:22:54.829Z,275
2018-06-04T05:24:04.546Z,275
2018-06-04T05:25:14.254Z,280
2018-06-04T05:26:23.973Z,280
2018-06-04T05:27:33.946Z,280
2018-06-04T05:28:43.945Z,285
2018-06-04T05:29:53.923Z,285
2018-06-04T05:31:03.651Z,285
2018-06-04T05:32:13.646Z,285
2018-06-04T05:33:23.377Z,290
2018-06-04T05:34:33.360Z,290
2018-06-04T05:35:43.347Z,290
2018-06-04T05:36:53.341Z,295
2018-06-04T05:38:03.323Z,295
2018-06-04T05:39:13.324Z,295
2018-06-04T05:40:23.299Z,295
2018-06-04T05:41:33.029Z,295
2018-06-04T05:42:42.749Z,300
2018-06-04T05:43:52.716Z,300
2018-06-04T05:45:02.687Z,300
2018-06-04T05:46:12.721Z,300
2018-06-04T05:47:22.693Z,305
2018-06-04T05:48:32.153Z,305
2018-06-04T05:49:42.136Z,305
2018-06-04T05:50:51.842Z,305
2018-06-04T05:52:01.562Z,310
2018-06-04T05:53:11.281Z,310
2018-06-04T05:54:21.278Z,315
2018-06-04T05:55:31.262Z,315
2018-06-04T05:56:40.984Z,320
2018-06-04T05:57:50.953Z,320
2018-06-04T05:59:00.941Z,320
2018-06-04T06:00:10.980Z,325
2018-06-04T06:01:20.713Z,325
2018-06-04T06:02:30.714Z,325
2018-06-04T06:03:40.689Z,330
2018-06-04T06:04:50.411Z,330
2018-06-04T06:06:00.396Z,330
2018-06-04T06:07:10.372Z,330
2018-06-04T06:08:20.348Z,330
2018-06-04T06:09:29.852Z,335
2018-06-04T06:10:39.850Z,335
2018-06-04T06:11:49.833Z,335
2018-06-04T06:12:59.807Z,340
2018-06-04T06:14:09.905Z,340
2018-06-04T06:15:19.994Z,350
2018-06-04T06:16:29.461Z,345
2018-06-04T06:17:38.949Z,350
2018-06-04T06:18:48.974Z,355
2018-06-04T06:19:59.111Z,360
2018-06-04T06:21:09.112Z,360
2018-06-04T06:22:19.116Z,360
2018-06-04T06:23:28.901Z,365
2018-06-04T06:24:38.920Z,365
2018-06-04T06:25:48.890Z,370
2018-06-04T06:26:58.887Z,375
2018-06-04T06:28:08.898Z,375
2018-06-04T06:29:18.622Z,380
2018-06-04T06:30:28.581Z,385
2018-06-04T06:31:38.338Z,385
2018-06-04T06:32:48.426Z,380
2018-06-04T06:33:58.404Z,380
2018-06-04T06:35:08.387Z,385
2018-06-04T06:36:17.846Z,390
2018-06-04T06:37:27.307Z,385
2018-06-04T06:38:37.281Z,385
2018-06-04T06:39:47.010Z,390
2018-06-04T06:40:57.006Z,395
2018-06-04T06:42:07.007Z,405
2018-06-04T06:43:17.022Z,405
2018-06-04T06:44:26.749Z,405
2018-06-04T06:45:36.738Z,410
2018-06-04T06:46:46.726Z,410
2018-06-04T06:47:56.703Z,390
2018-06-04T06:49:06.882Z,400
2018-06-04T06:50:17.163Z,395
2018-06-04T06:51:26.880Z,420
2018-06-04T06:52:36.602Z,430
2018-06-04T06:53:46.588Z,460
2018-06-04T06:54:56.567Z,455
2018-06-04T06:56:06.282Z,435
2018-06-04T06:57:16.278Z,445
2018-06-04T06:58:26.317Z,435
2018-06-04T06:59:36.324Z,445
2018-06-04T07:00:46.307Z,450
2018-06-04T07:01:56.345Z,445
2018-06-04T07:03:05.808Z,430
2018-06-04T07:04:15.782Z,435
2018-06-04T07:05:25.761Z,445
2018-06-04T07:06:35.756Z,465
2018-06-04T07:07:45.577Z,465
2018-06-04T07:08:55.323Z,465
2018-06-04T07:10:05.313Z,470
2018-06-04T07:11:15.366Z,475
2018-06-04T07:12:25.360Z,465
2018-06-04T07:13:35.349Z,450
2018-06-04T07:14:45.430Z,455
2018-06-04T07:15:55.407Z,470
2018-06-04T07:17:05.404Z,490
2018-06-04T07:18:15.135Z,485
2018-06-04T07:19:25.129Z,480
2018-06-04T07:20:35.122Z,495
2018-06-04T07:21:45.131Z,510
2018-06-04T07:22:55.114Z,540
2018-06-04T07:24:05.104Z,540
2018-06-04T07:25:15.101Z,520
2018-06-04T07:26:24.869Z,500
2018-06-04T07:27:34.884Z,490
2018-06-04T07:28:44.906Z,500
2018-06-04T07:29:54.911Z,515
2018-06-04T07:31:04.895Z,510
2018-06-04T07:32:14.874Z,520
2018-06-04T07:33:24.084Z,540
2018-06-04T07:34:33.802Z,535
2018-06-04T07:35:43.779Z,530
2018-06-04T07:36:53.239Z,525
2018-06-04T07:38:02.971Z,515
2018-06-04T07:39:12.691Z,520
2018-06-04T07:40:22.677Z,520
2018-06-04T07:41:32.586Z,515
2018-06-04T07:42:42.598Z,520
2018-06-04T07:43:52.779Z,540
2018-06-04T07:45:02.761Z,550
2018-06-04T07:46:12.491Z,575
2018-06-04T07:47:22.470Z,590
2018-06-04T07:48:32.461Z,605
2018-06-04T07:49:42.194Z,630
2018-06-04T07:50:51.923Z,630
2018-06-04T07:52:01.980Z,610
2018-06-04T07:53:11.981Z,580
2018-06-04T07:54:22.000Z,550
2018-06-04T07:55:31.729Z,565
2018-06-04T07:56:41.718Z,565
2018-06-04T07:57:51.715Z,570
2018-06-04T07:59:01.475Z,580
2018-06-04T08:00:11.478Z,580
2018-06-04T08:01:21.466Z,585
2018-06-04T08:02:31.460Z,605
2018-06-04T08:03:40.660Z,610
2018-06-04T08:04:50.628Z,625
2018-06-04T08:06:00.614Z,660
2018-06-04T08:07:10.598Z,690
2018-06-04T08:08:20.304Z,700
2018-06-04T08:09:30.295Z,700
2018-06-04T08:10:40.294Z,685
2018-06-04T08:11:50.032Z,675
2018-06-04T08:13:00.222Z,685
2018-06-04T08:14:09.952Z,705
2018-06-04T08:15:19.702Z,730
2018-06-04T08:16:29.693Z,725
2018-06-04T08:17:39.680Z,700
2018-06-04T08:18:49.719Z,660
2018-06-04T08:19:59.700Z,655
2018-06-04T08:21:09.431Z,665
2018-06-04T08:22:19.419Z,680
2018-06-04T08:23:29.403Z,660
2018-06-04T08:24:39.143Z,680
2018-06-04T08:25:49.140Z,700
2018-06-04T08:26:59.147Z,685
2018-06-04T08:28:08.646Z,675
2018-06-04T08:29:18.214Z,675
2018-06-04T08:30:28.211Z,685
2018-06-04T08:31:38.217Z,795
2018-06-04T08:32:48.214Z,1150
2018-06-04T08:33:57.956Z,1235
2018-06-04T08:35:07.943Z,1260
2018-06-04T08:36:17.956Z,1355
2018-06-04T08:37:27.937Z,1360
2018-06-04T08:38:37.850Z,1370
2018-06-04T08:39:47.830Z,1220
2018-06-04T08:40:57.812Z,1140
2018-06-04T08:42:07.534Z,1115
2018-06-04T08:43:17.538Z,600
2018-06-04T08:44:27.512Z,625
2018-06-04T08:45:37.761Z,755
2018-06-04T08:46:47.773Z,1320
2018-06-04T08:47:57.499Z,1365
2018-06-04T08:49:07.520Z,1530
2018-06-04T08:50:17.519Z,1475
2018-06-04T08:51:27.512Z,1450
2018-06-04T08:52:37.515Z,1240
2018-06-04T08:53:47.544Z,1570
2018-06-04T08:54:57.536Z,1575
2018-06-04T08:56:07.493Z,1550
2018-06-04T08:57:17.749Z,1605
2018-06-04T08:58:27.757Z,1650
2018-06-04T08:59:37.531Z,1710
2018-06-04T09:00:47.538Z,1630
2018-06-04T09:01:57.539Z,1605
2018-06-04T09:03:07.546Z,1330
2018-06-04T09:04:17.533Z,1735
2018-06-04T09:05:27.528Z,1855
2018-06-04T09:06:37.533Z,1015
2018-06-04T09:07:47.552Z,935
2018-06-04T09:08:57.555Z,840
2018-06-04T09:10:07.428Z,890
2018-06-04T09:11:17.169Z,755
2018-06-04T09:12:26.901Z,750
2018-06-04T09:13:36.630Z,775
2018-06-04T09:14:46.366Z,995
2018-06-04T09:15:56.310Z,1765
2018-06-04T09:17:06.311Z,1775
2018-06-04T09:18:16.325Z,1815
2018-06-04T09:19:26.321Z,1865
2018-06-04T09:20:36.056Z,1885
2018-06-04T09:21:45.578Z,1900
2018-06-04T09:22:55.605Z,1880
2018-06-04T09:24:05.592Z,1980
2018-06-04T09:25:15.579Z,2145
2018-06-04T09:26:25.302Z,2090
2018-06-04T09:27:35.306Z,1130
2018-06-04T09:28:45.328Z,825
2018-06-04T09:29:55.311Z,740
2018-06-04T09:31:05.043Z,685
2018-06-04T09:32:15.106Z,675
2018-06-04T09:33:25.112Z,680
2018-06-04T09:34:34.836Z,710
2018-06-04T09:35:44.393Z,860
2018-06-04T09:36:54.375Z,765
2018-06-04T09:38:04.106Z,750
2018-06-04T09:39:14.123Z,1250
2018-06-04T09:40:24.117Z,850
2018-06-04T09:41:34.106Z,2020
2018-06-04T09:42:44.103Z,2095
2018-06-04T09:43:53.825Z,2165
2018-06-04T09:45:03.834Z,2220
2018-06-04T09:46:13.841Z,2240
2018-06-04T09:47:23.856Z,2025
2018-06-04T09:48:33.845Z,1880
2018-06-04T09:49:43.860Z,990
2018-06-04T09:50:53.609Z,850
2018-06-04T09:52:03.583Z,885
2018-06-04T09:53:13.639Z,2090
2018-06-04T09:54:23.690Z,2160
2018-06-04T09:55:33.685Z,2165
2018-06-04T09:56:43.674Z,2180
2018-06-04T09:57:53.404Z,2225
2018-06-04T09:59:03.385Z,2240
2018-06-04T10:00:13.114Z,2155
2018-06-04T10:01:22.841Z,2185
2018-06-04T10:02:32.840Z,2420
2018-06-04T10:03:42.823Z,2575
2018-06-04T10:04:53.195Z,2340
2018-06-04T10:06:03.197Z,2320
2018-06-04T10:07:13.212Z,2285
2018-06-04T10:08:23.216Z,2330
2018-06-04T10:09:33.202Z,2415
2018-06-04T10:10:43.187Z,2400
2018-06-04T10:11:53.183Z,885
2018-06-04T10:13:02.926Z,875
2018-06-04T10:14:13.156Z,865
2018-06-04T10:15:23.175Z,850
2018-06-04T10:16:32.968Z,860
2018-06-04T10:17:42.725Z,795
2018-06-04T10:18:52.718Z,765
2018-06-04T10:20:02.448Z,750
2018-06-04T10:21:11.911Z,760
2018-06-04T10:22:21.657Z,795
2018-06-04T10:23:31.655Z,850
2018-06-04T10:24:41.653Z,1170
2018-06-04T10:25:51.650Z,2230
2018-06-04T10:27:01.374Z,2385
2018-06-04T10:28:11.378Z,2455
2018-06-04T10:29:21.376Z,2600
2018-06-04T10:30:31.123Z,2630
2018-06-04T10:31:41.102Z,2620
2018-06-04T10:32:50.819Z,2605
2018-06-04T10:34:00.810Z,2695
2018-06-04T10:35:10.814Z,2265
2018-06-04T10:36:20.546Z,2445
2018-06-04T10:37:30.265Z,2415
2018-06-04T10:38:40.279Z,960
2018-06-04T10:39:50.031Z,915
2018-06-04T10:41:00.054Z,1965
2018-06-04T10:42:09.789Z,2740
2018-06-04T10:43:19.795Z,2760
2018-06-04T10:44:29.788Z,2640
2018-06-04T10:45:39.773Z,2635
2018-06-04T10:46:49.885Z,2695
2018-06-04T10:47:59.616Z,1155
2018-06-04T10:49:09.353Z,1020
2018-06-04T10:50:19.092Z,1005
2018-06-04T10:51:29.083Z,1040
2018-06-04T10:52:38.819Z,2620
2018-06-04T10:53:48.833Z,2550
2018-06-04T10:54:58.843Z,2905
2018-06-04T10:56:08.849Z,1150
2018-06-04T10:57:18.894Z,1770
2018-06-04T10:58:28.907Z,2900
2018-06-04T10:59:38.903Z,2900
2018-06-04T11:00:48.906Z,2835
2018-06-04T11:01:58.915Z,1615
2018-06-04T11:03:08.906Z,2765
2018-06-04T11:04:18.907Z,2720
2018-06-04T11:05:28.650Z,2760
2018-06-04T11:06:38.383Z,2845
2018-06-04T11:07:48.676Z,2885
2018-06-04T11:08:58.662Z,3000
2018-06-04T11:10:08.646Z,2760
2018-06-04T11:11:18.651Z,2195
2018-06-04T11:12:28.639Z,3020
2018-06-04T11:13:38.357Z,3060
2018-06-04T11:14:48.416Z,2980
2018-06-04T11:15:58.412Z,3000
2018-06-04T11:17:08.200Z,2925
2018-06-04T11:18:18.185Z,2880
2018-06-04T11:19:28.200Z,2915
2018-06-04T11:20:38.199Z,2920
2018-06-04T11:21:47.944Z,2900
2018-06-04T11:22:57.944Z,3070
2018-06-04T11:24:07.689Z,3170
2018-06-04T11:25:17.688Z,3145
2018-06-04T11:26:27.452Z,3095
2018-06-04T11:27:37.190Z,3085
2018-06-04T11:28:46.919Z,3180
2018-06-04T11:29:56.915Z,3195
2018-06-04T11:31:06.383Z,2510
2018-06-04T11:32:15.865Z,1170
2018-06-04T11:33:25.336Z,980
2018-06-04T11:34:34.816Z,865
2018-06-04T11:35:44.298Z,820
2018-06-04T11:36:54.027Z,725
2018-06-04T11:38:04.039Z,670
2018-06-04T11:39:14.053Z,660
2018-06-04T11:40:23.777Z,695
2018-06-04T11:41:33.515Z,730
2018-06-04T11:42:43.504Z,795
2018-06-04T11:43:53.277Z,950
2018-06-04T11:45:03.011Z,2740
2018-06-04T11:46:13.029Z,1390
2018-06-04T11:47:23.021Z,1150
2018-06-04T11:48:33.005Z,2045
2018-06-04T11:49:43.008Z,3035
2018-06-04T11:50:53.005Z,1995
2018-06-04T11:52:03.008Z,2830
2018-06-04T11:53:12.480Z,1365
2018-06-04T11:54:22.464Z,1430
2018-06-04T11:55:31.968Z,1795
2018-06-04T11:56:42.082Z,1275
2018-06-04T11:57:52.078Z,3145
2018-06-04T11:59:02.084Z,1915
2018-06-04T12:00:12.100Z,1400
2018-06-04T12:01:22.070Z,1855
2018-06-04T12:02:31.522Z,1705
2018-06-04T12:03:41.529Z,1845
2018-06-04T12:04:51.243Z,2000
2018-06-04T12:06:01.517Z,1835
2018-06-04T12:07:11.518Z,2010
2018-06-04T12:08:21.540Z,3485
2018-06-04T12:09:31.514Z,3230
2018-06-04T12:10:41.496Z,3300
2018-06-04T12:11:51.926Z,3360
2018-06-04T12:13:01.925Z,3330
2018-06-04T12:14:11.903Z,2755
2018-06-04T12:15:21.649Z,2515
2018-06-04T12:16:31.361Z,3350
2018-06-04T12:17:41.148Z,3330
2018-06-04T12:18:50.877Z,3350
2018-06-04T12:20:00.613Z,3250
2018-06-04T12:21:10.606Z,3345
2018-06-04T12:22:20.604Z,1885
2018-06-04T12:23:30.610Z,3185
2018-06-04T12:24:40.593Z,2070
2018-06-04T12:25:50.580Z,3240
2018-06-04T12:27:00.311Z,3115
2018-06-04T12:28:10.316Z,3155
2018-06-04T12:29:20.363Z,2525
2018-06-04T12:30:30.353Z,2825
2018-06-04T12:31:40.098Z,1555
2018-06-04T12:32:50.121Z,2410
2018-06-04T12:34:00.120Z,3425
2018-06-04T12:35:09.834Z,2725
2018-06-04T12:36:19.554Z,3330
2018-06-04T12:37:29.269Z,3450
2018-06-04T12:38:39.007Z,3335
2018-06-04T12:39:48.993Z,3270
2018-06-04T12:40:58.971Z,3205
2018-06-04T12:42:08.970Z,3190
2018-06-04T12:43:18.975Z,3210
2018-06-04T12:44:28.956Z,3355
2018-06-04T12:45:38.926Z,3410
2018-06-04T12:46:48.896Z,3365
2018-06-04T12:47:58.881Z,3260
2018-06-04T12:49:08.866Z,3270
2018-06-04T12:50:18.864Z,3185
2018-06-04T12:51:28.854Z,2770
2018-06-04T12:52:38.581Z,3390
2018-06-04T12:53:48.568Z,3355
2018-06-04T12:54:58.561Z,3475
2018-06-04T12:56:08.612Z,3470
2018-06-04T12:57:18.612Z,3445
2018-06-04T12:58:28.595Z,3385
2018-06-04T12:59:38.306Z,3290
2018-06-04T13:00:48.306Z,3220
2018-06-04T13:01:58.030Z,3225
2018-06-04T13:03:08.034Z,3350
2018-06-04T13:04:18.028Z,3400
2018-06-04T13:05:28.005Z,3285
2018-06-04T13:06:38.030Z,3335
2018-06-04T13:07:47.750Z,3350
2018-06-04T13:08:57.209Z,3275
2018-06-04T13:10:07.195Z,3380
2018-06-04T13:11:16.696Z,3335
2018-06-04T13:12:26.433Z,3215
2018-06-04T13:13:36.429Z,3125
2018-06-04T13:14:46.169Z,3250
2018-06-04T13:15:56.162Z,3415
2018-06-04T13:17:05.885Z,3435
2018-06-04T13:18:15.861Z,3355
2018-06-04T13:19:25.609Z,3365
2018-06-04T13:20:35.607Z,3360
2018-06-04T13:21:45.809Z,3355
2018-06-04T13:22:55.780Z,3295
2018-06-04T13:24:05.760Z,3210
2018-06-04T13:25:15.762Z,1195
2018-06-04T13:26:25.755Z,1090
2018-06-04T13:27:35.735Z,2170
2018-06-04T13:28:45.733Z,2840
2018-06-04T13:29:55.199Z,3335
2018-06-04T13:31:05.180Z,3260
2018-06-04T13:32:14.905Z,3160
2018-06-04T13:33:24.879Z,3205
2018-06-04T13:34:34.863Z,3170
2018-06-04T13:35:44.856Z,3215
2018-06-04T13:36:54.864Z,3250
2018-06-04T13:38:04.856Z,1250
2018-06-04T13:39:14.840Z,1170
2018-06-04T13:40:24.850Z,1175
2018-06-04T13:41:34.833Z,3355
2018-06-04T13:42:44.811Z,3355
2018-06-04T13:43:54.539Z,3400
2018-06-04T13:45:04.522Z,3295
2018-06-04T13:46:14.502Z,3290
2018-06-04T13:47:24.494Z,3185
2018-06-04T13:48:34.218Z,3250
2018-06-04T13:49:44.191Z,3215
2018-06-04T13:50:54.200Z,3205
2018-06-04T13:52:04.200Z,3075
2018-06-04T13:53:14.191Z,1385
2018-06-04T13:54:24.169Z,2430
2018-06-04T13:55:33.632Z,1315
2018-06-04T13:56:43.656Z,1205
2018-06-04T13:57:53.679Z,1065
2018-06-04T13:59:03.651Z,975
2018-06-04T14:00:13.640Z,920
2018-06-04T14:01:23.382Z,915
2018-06-04T14:02:33.372Z,985
2018-06-04T14:03:43.363Z,2660
2018-06-04T14:04:53.352Z,2420
2018-06-04T14:06:03.346Z,2865
2018-06-04T14:07:13.319Z,2850
2018-06-04T14:08:23.337Z,2955
2018-06-04T14:09:33.322Z,3025
2018-06-04T14:10:43.040Z,2970
2018-06-04T14:11:53.006Z,2840
2018-06-04T14:13:02.744Z,2660
2018-06-04T14:14:12.724Z,2665
2018-06-04T14:15:22.194Z,2745
2018-06-04T14:16:32.171Z,2785
2018-06-04T14:17:42.175Z,2785
2018-06-04T14:18:52.164Z,2055
2018-06-04T14:20:02.149Z,2845
2018-06-04T14:21:12.133Z,2895
2018-06-04T14:22:22.122Z,2890
2018-06-04T14:23:31.590Z,1140
2018-06-04T14:24:41.565Z,1130
2018-06-04T14:25:51.278Z,1200
2018-06-04T14:27:01.021Z,2970
2018-06-04T14:28:10.995Z,3020
2018-06-04T14:29:20.991Z,1215
2018-06-04T14:30:31.003Z,2650
2018-06-04T14:31:40.977Z,2935
2018-06-04T14:32:50.716Z,2860
2018-06-04T14:34:00.709Z,2805
2018-06-04T14:35:10.430Z,2820
2018-06-04T14:36:20.150Z,2770
2018-06-04T14:37:29.856Z,2700
2018-06-04T14:38:39.837Z,2845
2018-06-04T14:39:49.837Z,1450
2018-06-04T14:40:59.836Z,2760
2018-06-04T14:42:09.825Z,2800
2018-06-04T14:43:19.816Z,2790
2018-06-04T14:44:30.048Z,2715
2018-06-04T14:45:39.789Z,2715
2018-06-04T14:46:49.518Z,2650
2018-06-04T14:47:59.244Z,2130
2018-06-04T14:49:09.235Z,2600
2018-06-04T14:50:19.227Z,1380
2018-06-04T14:51:29.008Z,975
2018-06-04T14:52:38.990Z,860
2018-06-04T14:53:49.011Z,795
2018-06-04T14:54:59.000Z,740
2018-06-04T14:56:09.009Z,705
2018-06-04T14:57:18.482Z,735
2018-06-04T14:58:28.471Z,1070
2018-06-04T14:59:38.188Z,1020
2018-06-04T15:00:48.158Z,1150
2018-06-04T15:01:57.879Z,2460
2018-06-04T15:03:07.853Z,1005
2018-06-04T15:04:17.948Z,1330
2018-06-04T15:05:27.945Z,1150
2018-06-04T15:06:37.954Z,2480
2018-06-04T15:07:47.670Z,2425
2018-06-04T15:08:57.393Z,2435
2018-06-04T15:10:07.383Z,2540
2018-06-04T15:11:16.661Z,2405
2018-06-04T15:12:26.127Z,2265
2018-06-04T15:13:36.132Z,2215
2018-06-04T15:14:45.346Z,2190
2018-06-04T15:15:54.557Z,2400
2018-06-04T15:17:04.572Z,1185
2018-06-04T15:18:14.302Z,1385
2018-06-04T15:19:24.044Z,2170
2018-06-04T15:20:34.083Z,1630
2018-06-04T15:21:44.081Z,955
2018-06-04T15:22:54.076Z,915
2018-06-04T15:24:04.057Z,910
2018-06-04T15:25:13.827Z,825
2018-06-04T15:26:23.809Z,795
2018-06-04T15:27:33.791Z,790
2018-06-04T15:28:43.507Z,825
2018-06-04T15:29:53.493Z,895
2018-06-04T15:31:03.477Z,1150
2018-06-04T15:32:13.204Z,895
2018-06-04T15:33:23.214Z,1350
2018-06-04T15:34:33.214Z,2260
2018-06-04T15:35:43.198Z,2125
2018-06-04T15:36:53.204Z,1970
2018-06-04T15:38:03.617Z,2005
2018-06-04T15:39:13.341Z,1665
2018-06-04T15:40:23.315Z,1770
2018-06-04T15:41:33.295Z,820
2018-06-04T15:42:43.278Z,780
2018-06-04T15:43:53.098Z,1310
2018-06-04T15:45:02.556Z,810
2018-06-04T15:46:12.287Z,810
2018-06-04T15:47:22.262Z,910
2018-06-04T15:48:32.234Z,1650
2018-06-04T15:49:42.210Z,1705
2018-06-04T15:50:52.225Z,950
2018-06-04T15:52:01.947Z,1215
2018-06-04T15:53:11.672Z,1020
2018-06-04T15:54:21.411Z,1500
2018-06-04T15:55:31.144Z,735
2018-06-04T15:56:41.111Z,660
2018-06-04T15:57:51.118Z,640
2018-06-04T15:59:01.104Z,630
2018-06-04T16:00:10.828Z,635
2018-06-04T16:01:20.821Z,895
2018-06-04T16:02:30.801Z,750